createdAt,value
2023-01-15T00:02:08.696Z,6.90
2023-01-15T00:04:37.341Z,6.90
2023-01-15T00:07:07.471Z,6.90
2023-01-15T00:09:35.882Z,6.90
2023-01-15T00:12:04.292Z,6.90
2023-01-15T00:14:32.492Z,6.90
2023-01-15T00:17:00.731Z,6.90
2023-01-15T00:19:29.033Z,6.90
2023-01-15T00:21:58.298Z,6.90
2023-01-15T00:24:45.339Z,6.90
2023-01-15T00:27:31.324Z,6.90
2023-01-15T00:29:59.598Z,6.90
2023-01-15T00:32:29.742Z,6.90
2023-01-15T00:34:59.369Z,7.00
2023-01-15T00:37:27.712Z,7.00
2023-01-15T00:39:57.576Z,7.00
2023-01-15T00:42:25.971Z,7.00
2023-01-15T00:44:54.254Z,7.00
2023-01-15T00:47:22.555Z,7.00
2023-01-15T00:49:51.700Z,7.00
2023-01-15T00:52:20.199Z,7.00
2023-01-15T00:54:48.743Z,7.00
2023-01-15T00:57:18.648Z,7.00
2023-01-15T00:59:47.014Z,6.90
2023-01-15T01:02:15.352Z,7.00
2023-01-15T01:04:43.775Z,6.90
2023-01-15T01:07:11.948Z,7.00
2023-01-15T01:09:40.347Z,7.00
2023-01-15T01:12:09.024Z,7.00
2023-01-15T01:14:39.736Z,7.00
2023-01-15T01:17:08.108Z,7.00
2023-01-15T01:19:37.905Z,7.00
2023-01-15T01:22:06.249Z,7.00
2023-01-15T01:24:34.503Z,7.00
2023-01-15T01:27:02.968Z,7.00
2023-01-15T01:29:31.138Z,7.00
2023-01-15T01:32:00.959Z,7.00
2023-01-15T01:34:29.499Z,7.00
2023-01-15T01:36:57.858Z,7.00
2023-01-15T01:39:26.140Z,7.00
2023-01-15T01:41:54.482Z,7.00
2023-01-15T01:45:00.120Z,7.00
2023-01-15T01:47:32.522Z,7.00
2023-01-15T01:50:04.314Z,7.00
2023-01-15T01:52:38.070Z,6.90
2023-01-15T01:55:08.915Z,7.00
2023-01-15T01:57:37.587Z,7.00
2023-01-15T02:00:07.671Z,6.90
2023-01-15T02:02:37.617Z,6.90
2023-01-15T02:05:06.985Z,6.90
2023-01-15T02:07:35.733Z,6.90
2023-01-15T02:10:04.244Z,6.90
2023-01-15T02:12:37.090Z,6.90
2023-01-15T02:15:12.282Z,6.90
2023-01-15T02:17:48.339Z,6.80
2023-01-15T02:20:28.973Z,6.80
2023-01-15T02:23:12.495Z,6.80
2023-01-15T02:25:55.652Z,6.80
2023-01-15T02:28:28.620Z,6.80
2023-01-15T02:31:04.693Z,6.80
2023-01-15T02:33:36.929Z,6.70
2023-01-15T02:36:08.143Z,6.70
2023-01-15T02:38:41.581Z,6.70
2023-01-15T02:41:16.742Z,6.60
2023-01-15T02:43:52.411Z,6.70
2023-01-15T02:46:24.487Z,6.60
2023-01-15T02:48:56.850Z,6.60
2023-01-15T02:51:28.399Z,6.60
2023-01-15T02:54:00.558Z,6.60
2023-01-15T02:56:33.145Z,6.60
2023-01-15T02:59:07.765Z,6.60
2023-01-15T03:01:40.084Z,6.60
2023-01-15T03:04:15.265Z,6.50
2023-01-15T03:06:47.402Z,6.50
2023-01-15T03:09:16.987Z,6.50
2023-01-15T03:11:48.848Z,6.50
2023-01-15T03:14:23.164Z,6.40
2023-01-15T03:16:53.661Z,6.40
2023-01-15T03:19:28.372Z,6.50
2023-01-15T03:22:00.769Z,6.40
2023-01-15T03:24:33.491Z,6.40
2023-01-15T03:27:03.346Z,6.40
2023-01-15T03:29:37.838Z,6.40
2023-01-15T03:32:06.693Z,6.40
2023-01-15T03:34:39.398Z,6.30
2023-01-15T03:37:07.852Z,6.40
2023-01-15T03:39:36.536Z,6.30
2023-01-15T03:42:16.322Z,6.30
2023-01-15T03:44:55.918Z,6.30
2023-01-15T03:47:34.423Z,6.30
2023-01-15T03:50:09.444Z,6.30
2023-01-15T03:52:44.877Z,6.20
2023-01-15T03:55:17.023Z,6.20
2023-01-15T03:57:52.037Z,6.20
2023-01-15T04:00:26.867Z,6.20
2023-01-15T04:02:57.693Z,6.10
2023-01-15T04:05:28.001Z,6.10
2023-01-15T04:07:58.272Z,6.20
2023-01-15T04:10:26.720Z,6.20
2023-01-15T04:12:54.997Z,6.10
2023-01-15T04:15:24.699Z,6.10
2023-01-15T04:17:53.018Z,6.10
2023-01-15T04:20:21.282Z,6.20
2023-01-15T04:22:49.580Z,6.10
2023-01-15T04:25:17.981Z,6.10
2023-01-15T04:27:46.187Z,6.10
2023-01-15T04:30:17.492Z,6.10
2023-01-15T04:32:50.018Z,6.10
2023-01-15T04:35:18.839Z,6.20
2023-01-15T04:37:47.429Z,6.20
2023-01-15T04:40:36.580Z,6.20
2023-01-15T04:43:30.565Z,6.20
2023-01-15T04:45:59.606Z,6.20
2023-01-15T04:48:29.309Z,6.20
2023-01-15T04:50:57.526Z,6.20
2023-01-15T04:53:27.503Z,6.20
2023-01-15T04:56:02.094Z,6.20
2023-01-15T04:58:30.629Z,6.30
2023-01-15T05:01:00.850Z,6.30
2023-01-15T05:03:31.562Z,6.30
2023-01-15T05:06:02.950Z,6.30
2023-01-15T05:08:31.275Z,6.30
2023-01-15T05:11:03.922Z,6.30
2023-01-15T05:13:33.565Z,6.40
2023-01-15T05:16:13.716Z,6.40
2023-01-15T05:18:44.485Z,6.40
2023-01-15T05:21:20.476Z,6.40
2023-01-15T05:23:49.121Z,6.40
2023-01-15T05:26:18.116Z,6.40
2023-01-15T05:28:46.940Z,6.40
2023-01-15T05:31:16.798Z,6.40
2023-01-15T05:33:47.911Z,6.40
2023-01-15T05:36:19.530Z,6.40
2023-01-15T05:38:48.298Z,6.40
2023-01-15T05:41:37.619Z,6.40
2023-01-15T05:44:07.457Z,6.30
2023-01-15T05:46:37.525Z,6.40
2023-01-15T05:49:08.616Z,6.40
2023-01-15T05:51:38.539Z,6.40
2023-01-15T05:54:08.268Z,6.40
2023-01-15T05:56:37.070Z,6.30
2023-01-15T05:59:05.932Z,6.40
2023-01-15T06:01:34.459Z,6.40
2023-01-15T06:04:05.145Z,6.40
2023-01-15T06:06:35.847Z,6.30
2023-01-15T06:09:05.015Z,6.40
2023-01-15T06:11:33.637Z,6.40
2023-01-15T06:14:02.012Z,6.30
2023-01-15T06:16:30.407Z,6.30
2023-01-15T06:19:02.296Z,6.20
2023-01-15T06:21:30.841Z,6.20
2023-01-15T06:24:00.798Z,6.20
2023-01-15T06:26:29.840Z,6.10
2023-01-15T06:28:58.654Z,6.10
2023-01-15T06:31:28.077Z,6.10
2023-01-15T06:33:56.700Z,6.10
2023-01-15T06:36:26.699Z,6.10
2023-01-15T06:38:55.504Z,6.10
2023-01-15T06:41:44.591Z,6.10
2023-01-15T06:44:31.163Z,6.10
2023-01-15T06:47:16.960Z,6.10
2023-01-15T06:49:45.174Z,6.20
2023-01-15T06:52:13.532Z,6.30
2023-01-15T06:54:42.024Z,6.20
2023-01-15T06:57:11.855Z,6.20
2023-01-15T06:59:40.163Z,6.20
2023-01-15T07:02:08.468Z,6.20
2023-01-15T07:04:36.712Z,6.20
2023-01-15T07:07:05.027Z,6.20
2023-01-15T07:09:33.313Z,6.20
2023-01-15T07:12:01.602Z,6.20
2023-01-15T07:14:32.275Z,6.20
2023-01-15T07:17:00.809Z,6.20
2023-01-15T07:19:29.052Z,6.10
2023-01-15T07:21:57.316Z,6.10
2023-01-15T07:24:25.564Z,6.10
2023-01-15T07:26:53.989Z,6.00
2023-01-15T07:29:23.349Z,5.90
2023-01-15T07:31:53.442Z,5.80
2023-01-15T07:34:22.144Z,5.80
2023-01-15T07:36:50.421Z,5.70
2023-01-15T07:39:18.685Z,5.60
2023-01-15T07:42:04.101Z,5.60
2023-01-15T07:44:49.550Z,5.50
2023-01-15T07:47:40.030Z,5.40
2023-01-15T07:50:12.192Z,5.40
2023-01-15T07:52:40.579Z,5.30
2023-01-15T07:55:10.286Z,5.30
2023-01-15T07:57:39.115Z,5.30
2023-01-15T08:00:09.573Z,5.30
2023-01-15T08:02:39.510Z,5.20
2023-01-15T08:05:09.241Z,5.20
2023-01-15T08:07:39.123Z,5.20
2023-01-15T08:10:08.369Z,5.20
2023-01-15T08:12:55.728Z,5.10
2023-01-15T08:15:25.388Z,5.10
2023-01-15T08:17:55.404Z,5.10
2023-01-15T08:20:26.076Z,5.10
2023-01-15T08:22:54.956Z,5.10
2023-01-15T08:25:25.086Z,5.20
2023-01-15T08:27:54.274Z,5.20
2023-01-15T08:30:24.862Z,5.20
2023-01-15T08:32:54.469Z,5.20
2023-01-15T08:35:22.762Z,5.20
2023-01-15T08:37:50.984Z,5.30
2023-01-15T08:40:19.473Z,5.30
2023-01-15T08:42:47.725Z,5.30
2023-01-15T08:45:16.168Z,5.20
2023-01-15T08:47:44.473Z,5.30
2023-01-15T08:50:14.323Z,5.30
2023-01-15T08:52:42.783Z,5.40
2023-01-15T08:55:11.380Z,5.40
2023-01-15T08:57:39.776Z,5.50
2023-01-15T09:00:09.618Z,5.50
2023-01-15T09:02:37.830Z,5.50
2023-01-15T09:05:06.880Z,5.50
2023-01-15T09:07:37.404Z,5.50
2023-01-15T09:10:06.550Z,5.50
2023-01-15T09:12:34.931Z,5.50
2023-01-15T09:15:03.508Z,5.50
2023-01-15T09:17:33.776Z,5.50
2023-01-15T09:20:03.311Z,5.50
2023-01-15T09:22:31.642Z,5.50
2023-01-15T09:25:01.720Z,5.50
2023-01-15T09:27:30.668Z,5.50
2023-01-15T09:29:58.887Z,5.60
2023-01-15T09:32:27.168Z,5.60
2023-01-15T09:34:55.375Z,5.70
2023-01-15T09:37:23.755Z,5.70
2023-01-15T09:39:52.001Z,5.60
2023-01-15T09:42:36.773Z,5.60
2023-01-15T09:45:21.874Z,5.60
2023-01-15T09:48:03.066Z,5.60
2023-01-15T09:50:42.845Z,5.70
2023-01-15T09:53:34.905Z,5.70
2023-01-15T09:56:04.902Z,5.70
2023-01-15T09:58:38.165Z,5.60
2023-01-15T10:01:07.627Z,5.60
2023-01-15T10:03:42.682Z,5.60
2023-01-15T10:06:16.703Z,5.50
2023-01-15T10:08:47.549Z,5.50
2023-01-15T10:11:46.840Z,5.40
2023-01-15T10:14:31.021Z,5.40
2023-01-15T10:16:59.592Z,5.50
2023-01-15T10:19:37.196Z,5.40
2023-01-15T10:22:19.905Z,5.40
2023-01-15T10:24:56.700Z,5.40
2023-01-15T10:27:27.981Z,5.40
2023-01-15T10:30:06.731Z,5.40
2023-01-15T10:33:00.648Z,5.40
2023-01-15T10:35:39.852Z,5.40
2023-01-15T10:38:17.856Z,5.50
2023-01-15T10:41:02.828Z,5.50
2023-01-15T10:43:43.950Z,5.60
2023-01-15T10:46:16.425Z,5.60
2023-01-15T10:48:47.140Z,5.70
2023-01-15T10:51:19.595Z,5.70
2023-01-15T10:53:53.022Z,5.70
2023-01-15T10:56:33.093Z,5.80
2023-01-15T10:59:10.549Z,5.80
2023-01-15T11:01:41.968Z,5.90
2023-01-15T11:04:13.400Z,5.90
2023-01-15T11:06:42.260Z,5.90
2023-01-15T11:09:20.360Z,5.90
2023-01-15T11:12:08.057Z,5.80
2023-01-15T11:14:55.561Z,5.80
2023-01-15T11:17:44.531Z,5.60
2023-01-15T11:20:25.667Z,5.60
2023-01-15T11:22:56.142Z,5.50
2023-01-15T11:25:32.445Z,5.50
2023-01-15T11:28:03.868Z,5.50
2023-01-15T11:30:37.450Z,5.50
2023-01-15T11:33:22.032Z,5.50
2023-01-15T11:35:58.291Z,5.40
2023-01-15T11:38:28.167Z,5.40
2023-01-15T11:40:59.844Z,5.40
2023-01-15T11:43:47.654Z,5.40
2023-01-15T11:46:44.570Z,5.40
2023-01-15T11:49:35.385Z,5.40
2023-01-15T11:52:04.711Z,5.40
2023-01-15T11:54:38.046Z,5.50
2023-01-15T11:57:07.478Z,5.40
2023-01-15T11:59:37.190Z,5.40
2023-01-15T12:02:17.493Z,5.40
2023-01-15T12:04:53.399Z,5.40
2023-01-15T12:07:24.587Z,5.30
2023-01-15T12:10:18.587Z,5.40
2023-01-15T12:12:59.248Z,5.40
2023-01-15T12:15:35.069Z,5.40
2023-01-15T12:18:35.958Z,5.40
2023-01-15T12:21:15.151Z,5.40
2023-01-15T12:24:12.064Z,5.40
2023-01-15T12:26:51.243Z,5.40
2023-01-15T12:29:25.982Z,5.40
2023-01-15T12:32:02.077Z,5.40
2023-01-15T12:34:38.218Z,5.40
2023-01-15T12:37:13.492Z,5.40
2023-01-15T12:39:47.332Z,5.40
2023-01-15T12:42:38.371Z,5.40
2023-01-15T12:45:11.049Z,5.40
2023-01-15T12:47:46.001Z,5.40
2023-01-15T12:50:28.417Z,5.40
2023-01-15T12:53:05.577Z,5.40
2023-01-15T12:55:42.846Z,5.40
2023-01-15T12:58:21.338Z,5.40
2023-01-15T13:00:52.375Z,5.50
2023-01-15T13:03:28.100Z,5.50
2023-01-15T13:06:00.331Z,5.50
2023-01-15T13:08:34.751Z,5.50
2023-01-15T13:11:03.213Z,5.50
2023-01-15T13:13:37.157Z,5.50
2023-01-15T13:16:18.928Z,5.50
2023-01-15T13:18:59.842Z,5.60
2023-01-15T13:21:30.598Z,5.50
2023-01-15T13:24:21.079Z,5.50
2023-01-15T13:27:09.303Z,5.50
2023-01-15T13:29:51.515Z,5.50
2023-01-15T13:32:22.339Z,5.50
2023-01-15T13:34:55.671Z,5.50
2023-01-15T13:37:28.539Z,5.50
2023-01-15T13:40:03.602Z,5.50
2023-01-15T13:42:32.019Z,5.50
2023-01-15T13:45:02.811Z,5.50
2023-01-15T13:47:35.864Z,5.50
2023-01-15T13:50:07.344Z,5.50
2023-01-15T13:52:38.428Z,5.50
2023-01-15T13:55:20.520Z,5.50
2023-01-15T13:57:49.354Z,5.50
2023-01-15T14:00:32.409Z,5.50
2023-01-15T14:03:02.230Z,5.50
2023-01-15T14:05:35.656Z,5.50
2023-01-15T14:08:16.690Z,5.60
2023-01-15T14:10:48.741Z,5.50
2023-01-15T14:14:01.633Z,5.50
2023-01-15T14:16:40.605Z,5.60
2023-01-15T14:19:33.040Z,5.60
2023-01-15T14:22:14.743Z,5.60
2023-01-15T14:25:04.290Z,5.60
2023-01-15T14:27:50.733Z,5.60
2023-01-15T14:30:34.207Z,5.60
2023-01-15T14:33:16.951Z,5.60
2023-01-15T14:35:48.481Z,5.60
2023-01-15T14:38:20.147Z,5.60
2023-01-15T14:40:59.665Z,5.60
2023-01-15T14:43:33.544Z,5.60
2023-01-15T14:46:15.895Z,5.60
2023-01-15T14:48:44.229Z,5.60
2023-01-15T14:51:15.660Z,5.50
2023-01-15T14:53:46.552Z,5.50
2023-01-15T14:56:24.282Z,5.50
2023-01-15T14:58:59.795Z,5.50
2023-01-15T15:01:36.996Z,5.50
2023-01-15T15:04:29.249Z,5.50
2023-01-15T15:06:59.905Z,5.50
2023-01-15T15:09:34.991Z,5.50
2023-01-15T15:12:26.809Z,5.50
2023-01-15T15:15:04.068Z,5.50
2023-01-15T15:17:40.416Z,5.50
2023-01-15T15:20:23.385Z,5.50
2023-01-15T15:22:58.200Z,5.50
2023-01-15T15:25:31.971Z,5.60
2023-01-15T15:28:05.137Z,5.60
2023-01-15T15:30:37.214Z,5.50
2023-01-15T15:33:06.956Z,5.50
2023-01-15T15:35:36.249Z,5.50
2023-01-15T15:38:07.299Z,5.50
2023-01-15T15:40:37.337Z,5.60
2023-01-15T15:43:31.123Z,5.60
2023-01-15T15:46:18.051Z,5.60
2023-01-15T15:48:53.430Z,5.60
2023-01-15T15:51:30.073Z,5.60
2023-01-15T15:54:16.259Z,5.70
2023-01-15T15:56:52.108Z,5.70
2023-01-15T15:59:36.651Z,5.70
2023-01-15T16:02:19.977Z,5.80
2023-01-15T16:04:50.088Z,5.80
2023-01-15T16:07:26.195Z,5.90
2023-01-15T16:09:57.838Z,5.90
2023-01-15T16:12:28.072Z,5.90
2023-01-15T16:14:58.174Z,6.00
2023-01-15T16:17:28.592Z,6.00
2023-01-15T16:19:57.728Z,6.10
2023-01-15T16:22:26.165Z,6.10
2023-01-15T16:24:56.356Z,6.20
2023-01-15T16:27:27.519Z,6.30
2023-01-15T16:29:56.233Z,6.30
2023-01-15T16:32:29.924Z,6.40
2023-01-15T16:35:06.951Z,6.50
2023-01-15T16:37:36.038Z,6.50
2023-01-15T16:40:06.427Z,6.60
2023-01-15T16:42:37.940Z,6.60
2023-01-15T16:45:13.545Z,6.60
2023-01-15T16:48:02.839Z,6.70
2023-01-15T16:50:32.544Z,6.70
2023-01-15T16:53:02.339Z,6.70
2023-01-15T16:55:45.001Z,6.70
2023-01-15T16:58:18.001Z,6.80
2023-01-15T17:00:48.269Z,6.80
2023-01-15T17:03:20.445Z,6.80
2023-01-15T17:05:50.130Z,6.80
2023-01-15T17:08:20.609Z,6.70
2023-01-15T17:10:57.952Z,6.80
2023-01-15T17:13:34.116Z,6.80
2023-01-15T17:16:05.932Z,6.80
2023-01-15T17:18:36.619Z,6.80
2023-01-15T17:21:05.505Z,6.90
2023-01-15T17:23:37.549Z,6.80
2023-01-15T17:26:07.185Z,6.80
2023-01-15T17:28:35.537Z,6.80
2023-01-15T17:31:04.419Z,6.80
2023-01-15T17:33:32.631Z,6.80
2023-01-15T17:36:02.230Z,6.70
2023-01-15T17:38:31.243Z,6.70
2023-01-15T17:41:05.469Z,6.70
2023-01-15T17:43:33.761Z,6.70
2023-01-15T17:46:03.174Z,6.70
2023-01-15T17:48:31.653Z,6.80
2023-01-15T17:51:02.731Z,6.80
2023-01-15T17:53:32.511Z,6.70
2023-01-15T17:56:29.912Z,6.70
2023-01-15T17:59:27.457Z,6.80
2023-01-15T18:02:13.087Z,6.70
2023-01-15T18:05:00.704Z,6.70
2023-01-15T18:07:36.023Z,6.70
2023-01-15T18:10:05.101Z,6.70
2023-01-15T18:12:33.283Z,6.70
2023-01-15T18:15:01.740Z,6.70
2023-01-15T18:17:31.797Z,6.60
2023-01-15T18:20:00.150Z,6.60
2023-01-15T18:22:30.183Z,6.70
2023-01-15T18:24:58.424Z,6.70
2023-01-15T18:27:30.259Z,6.70
2023-01-15T18:29:58.872Z,6.70
2023-01-15T18:32:30.285Z,6.60
2023-01-15T18:34:58.515Z,6.60
2023-01-15T18:37:26.680Z,6.60
2023-01-15T18:39:57.217Z,6.60
2023-01-15T18:42:42.830Z,6.50
2023-01-15T18:45:29.328Z,6.60
2023-01-15T18:47:57.555Z,6.60
2023-01-15T18:50:26.652Z,6.50
2023-01-15T18:52:55.583Z,6.50
2023-01-15T18:55:26.522Z,6.50
2023-01-15T18:57:54.897Z,6.50
2023-01-15T19:00:25.096Z,6.50
2023-01-15T19:02:54.184Z,6.50
2023-01-15T19:05:22.985Z,6.40
2023-01-15T19:07:51.282Z,6.40
2023-01-15T19:10:20.448Z,6.40
2023-01-15T19:12:50.296Z,6.40
2023-01-15T19:15:38.157Z,6.40
2023-01-15T19:18:24.562Z,6.40
2023-01-15T19:20:52.852Z,6.40
2023-01-15T19:23:22.077Z,6.40
2023-01-15T19:25:50.801Z,6.40
2023-01-15T19:28:21.855Z,6.40
2023-01-15T19:31:12.828Z,6.30
2023-01-15T19:33:41.159Z,6.30
2023-01-15T19:36:09.995Z,6.30
2023-01-15T19:38:39.516Z,6.20
2023-01-15T19:41:29.235Z,6.20
2023-01-15T19:44:16.279Z,6.30
2023-01-15T19:47:02.148Z,6.20
2023-01-15T19:49:53.239Z,6.20
2023-01-15T19:52:37.838Z,6.20
2023-01-15T19:55:08.449Z,6.20
2023-01-15T19:57:44.295Z,6.20
2023-01-15T20:00:18.218Z,6.20
2023-01-15T20:02:47.748Z,6.10
2023-01-15T20:05:17.368Z,6.10
2023-01-15T20:07:45.870Z,6.10
2023-01-15T20:10:16.241Z,6.00
2023-01-15T20:13:01.990Z,6.10
2023-01-15T20:15:32.473Z,6.10
2023-01-15T20:18:03.405Z,6.10
2023-01-15T20:20:31.793Z,6.10
2023-01-15T20:22:59.923Z,6.10
2023-01-15T20:25:29.058Z,6.10
2023-01-15T20:27:58.245Z,6.10
2023-01-15T20:30:27.548Z,6.10
2023-01-15T20:32:58.771Z,6.00
2023-01-15T20:35:31.258Z,6.00
2023-01-15T20:38:01.855Z,6.00
2023-01-15T20:40:30.658Z,6.00
2023-01-15T20:43:16.185Z,6.10
2023-01-15T20:45:44.642Z,6.00
2023-01-15T20:48:35.527Z,6.00
2023-01-15T20:51:12.615Z,6.00
2023-01-15T20:53:42.419Z,6.00
2023-01-15T20:56:14.930Z,6.00
2023-01-15T20:58:43.952Z,6.00
2023-01-15T21:01:12.525Z,6.10
2023-01-15T21:03:49.375Z,6.10
2023-01-15T21:06:17.633Z,6.10
2023-01-15T21:08:46.346Z,6.10
2023-01-15T21:11:14.701Z,6.10
2023-01-15T21:13:45.135Z,6.10
2023-01-15T21:16:17.298Z,6.00
2023-01-15T21:18:46.474Z,6.10
2023-01-15T21:21:18.760Z,6.00
2023-01-15T21:23:47.485Z,6.00
2023-01-15T21:26:16.585Z,6.00
2023-01-15T21:28:45.863Z,5.90
2023-01-15T21:31:15.233Z,5.90
2023-01-15T21:33:43.600Z,5.90
2023-01-15T21:36:14.283Z,5.90
2023-01-15T21:38:44.063Z,5.90
2023-01-15T21:41:14.142Z,5.90
2023-01-15T21:44:00.720Z,5.80
2023-01-15T21:46:29.468Z,5.80
2023-01-15T21:48:59.143Z,5.80
2023-01-15T21:51:27.797Z,5.80
2023-01-15T21:54:00.200Z,5.70
2023-01-15T21:56:29.094Z,5.70
2023-01-15T21:58:57.355Z,5.70
2023-01-15T22:01:26.156Z,5.70
2023-01-15T22:03:54.530Z,5.70
2023-01-15T22:06:22.642Z,5.60
2023-01-15T22:08:50.828Z,5.70
2023-01-15T22:11:20.496Z,5.70
2023-01-15T22:13:51.190Z,5.60
2023-01-15T22:16:20.087Z,5.60
2023-01-15T22:18:48.893Z,5.60
2023-01-15T22:21:17.212Z,5.60
2023-01-15T22:23:49.122Z,5.70
2023-01-15T22:26:19.887Z,5.60
2023-01-15T22:28:51.651Z,5.60
2023-01-15T22:31:20.098Z,5.60
2023-01-15T22:33:48.290Z,5.60
2023-01-15T22:36:17.133Z,5.50
2023-01-15T22:38:46.309Z,5.60
2023-01-15T22:41:14.569Z,5.50
2023-01-15T22:43:46.917Z,5.60
2023-01-15T22:46:16.172Z,5.50
2023-01-15T22:48:44.456Z,5.60
2023-01-15T22:51:12.627Z,5.50
2023-01-15T22:53:40.853Z,5.50
2023-01-15T22:56:09.125Z,5.50
2023-01-15T22:58:42.344Z,5.50
2023-01-15T23:01:12.731Z,5.50
2023-01-15T23:03:41.819Z,5.50
2023-01-15T23:06:13.589Z,5.50
2023-01-15T23:08:42.482Z,5.50
2023-01-15T23:11:12.748Z,5.50
2023-01-15T23:13:41.904Z,5.50
2023-01-15T23:16:11.820Z,5.50
2023-01-15T23:18:40.047Z,5.50
2023-01-15T23:21:10.509Z,5.50
2023-01-15T23:23:39.164Z,5.50
2023-01-15T23:26:09.530Z,5.50
2023-01-15T23:28:37.871Z,5.50
2023-01-15T23:31:06.492Z,5.50
2023-01-15T23:33:36.548Z,5.40
2023-01-15T23:36:09.772Z,5.40
2023-01-15T23:38:38.280Z,5.40
2023-01-15T23:41:10.089Z,5.40
2023-01-15T23:43:56.519Z,5.40
2023-01-15T23:46:35.325Z,5.50
2023-01-15T23:49:10.320Z,5.40
2023-01-15T23:51:40.137Z,5.40
2023-01-15T23:54:08.800Z,5.40
2023-01-15T23:56:37.012Z,5.40
2023-01-15T23:59:05.167Z,5.50
